sensor_id;sensor_type;location;lat;lon;timestamp;pressure;altitude;pressure_sealevel;temperature;humidity
35577;BME280;21680;52.400;16.920;2023-03-19T00:01:59;100668.73;;;6.51;55.49
35577;BME280;21680;52.400;16.920;2023-03-19T00:04:25;100671.98;;;6.48;55.51
35577;BME280;21680;52.400;16.920;2023-03-19T00:06:51;100674.18;;;6.46;55.70
35577;BME280;21680;52.400;16.920;2023-03-19T00:09:18;100677.27;;;6.43;55.67
35577;BME280;21680;52.400;16.920;2023-03-19T00:11:43;100679.48;;;6.40;55.77
35577;BME280;21680;52.400;16.920;2023-03-19T00:14:09;100684.33;;;6.38;55.87
35577;BME280;21680;52.400;16.920;2023-03-19T00:16:35;100682.94;;;6.37;56.04
35577;BME280;21680;52.400;16.920;2023-03-19T00:19:00;100685.46;;;6.35;56.01
35577;BME280;21680;52.400;16.920;2023-03-19T00:21:26;100685.64;;;6.35;56.11
35577;BME280;21680;52.400;16.920;2023-03-19T00:23:53;100688.13;;;6.35;56.18
35577;BME280;21680;52.400;16.920;2023-03-19T00:26:18;100684.73;;;6.36;56.23
35577;BME280;21680;52.400;16.920;2023-03-19T00:28:44;100685.63;;;6.35;56.36
35577;BME280;21680;52.400;16.920;2023-03-19T00:31:14;100687.06;;;6.35;56.43
35577;BME280;21680;52.400;16.920;2023-03-19T00:33:42;100686.77;;;6.33;56.35
35577;BME280;21680;52.400;16.920;2023-03-19T00:36:09;100688.06;;;6.31;56.54
35577;BME280;21680;52.400;16.920;2023-03-19T00:38:35;100687.05;;;6.28;56.51
35577;BME280;21680;52.400;16.920;2023-03-19T00:41:01;100689.21;;;6.27;56.60
35577;BME280;21680;52.400;16.920;2023-03-19T00:43:26;100687.30;;;6.26;56.59
35577;BME280;21680;52.400;16.920;2023-03-19T00:45:52;100685.00;;;6.26;56.57
35577;BME280;21680;52.400;16.920;2023-03-19T00:48:18;100679.55;;;6.23;56.79
35577;BME280;21680;52.400;16.920;2023-03-19T00:50:44;100680.29;;;6.23;56.89
35577;BME280;21680;52.400;16.920;2023-03-19T00:53:10;100678.34;;;6.22;56.81
35577;BME280;21680;52.400;16.920;2023-03-19T00:55:35;100683.67;;;6.22;56.97
35577;BME280;21680;52.400;16.920;2023-03-19T00:58:00;100682.11;;;6.21;57.01
35577;BME280;21680;52.400;16.920;2023-03-19T01:00:26;100678.40;;;6.19;57.10
35577;BME280;21680;52.400;16.920;2023-03-19T01:02:51;100680.02;;;6.19;56.95
35577;BME280;21680;52.400;16.920;2023-03-19T01:05:17;100679.20;;;6.16;57.22
35577;BME280;21680;52.400;16.920;2023-03-19T01:07:42;100677.48;;;6.13;57.12
35577;BME280;21680;52.400;16.920;2023-03-19T01:10:08;100681.25;;;6.12;57.29
35577;BME280;21680;52.400;16.920;2023-03-19T01:12:34;100683.39;;;6.11;57.29
35577;BME280;21680;52.400;16.920;2023-03-19T01:15:00;100680.88;;;6.12;57.46
35577;BME280;21680;52.400;16.920;2023-03-19T01:17:26;100681.04;;;6.13;57.48
35577;BME280;21680;52.400;16.920;2023-03-19T01:19:52;100679.07;;;6.14;57.57
35577;BME280;21680;52.400;16.920;2023-03-19T01:22:17;100676.73;;;6.15;57.58
35577;BME280;21680;52.400;16.920;2023-03-19T01:24:43;100672.30;;;6.15;57.56
35577;BME280;21680;52.400;16.920;2023-03-19T01:27:09;100673.70;;;6.16;57.75
35577;BME280;21680;52.400;16.920;2023-03-19T01:29:34;100677.58;;;6.16;57.79
35577;BME280;21680;52.400;16.920;2023-03-19T01:32:00;100676.31;;;6.18;57.78
35577;BME280;21680;52.400;16.920;2023-03-19T01:34:26;100667.95;;;6.19;57.88
35577;BME280;21680;52.400;16.920;2023-03-19T01:36:51;100661.85;;;6.21;57.93
35577;BME280;21680;52.400;16.920;2023-03-19T01:39:17;100663.48;;;6.21;58.00
35577;BME280;21680;52.400;16.920;2023-03-19T01:41:42;100658.69;;;6.20;58.05
35577;BME280;21680;52.400;16.920;2023-03-19T01:44:29;100659.98;;;6.18;58.13
35577;BME280;21680;52.400;16.920;2023-03-19T01:46:56;100660.60;;;6.14;58.05
35577;BME280;21680;52.400;16.920;2023-03-19T01:49:23;100661.73;;;6.12;58.27
35577;BME280;21680;52.400;16.920;2023-03-19T01:51:50;100664.29;;;6.09;58.19
35577;BME280;21680;52.400;16.920;2023-03-19T01:54:19;100663.64;;;6.06;58.18
35577;BME280;21680;52.400;16.920;2023-03-19T01:56:47;100665.10;;;6.05;58.24
35577;BME280;21680;52.400;16.920;2023-03-19T01:59:18;100667.83;;;6.02;58.34
35577;BME280;21680;52.400;16.920;2023-03-19T02:02:09;100665.93;;;6.00;58.40
35577;BME280;21680;52.400;16.920;2023-03-19T02:04:37;100662.29;;;5.97;58.46
35577;BME280;21680;52.400;16.920;2023-03-19T02:07:05;100662.66;;;5.96;58.51
35577;BME280;21680;52.400;16.920;2023-03-19T02:09:31;100663.38;;;5.95;58.49
35577;BME280;21680;52.400;16.920;2023-03-19T02:11:58;100659.68;;;5.95;58.40
35577;BME280;21680;52.400;16.920;2023-03-19T02:14:24;100655.78;;;5.95;58.68
35577;BME280;21680;52.400;16.920;2023-03-19T02:16:51;100660.01;;;5.96;58.54
35577;BME280;21680;52.400;16.920;2023-03-19T02:19:26;100663.72;;;5.96;58.57
35577;BME280;21680;52.400;16.920;2023-03-19T02:21:54;100667.95;;;5.97;58.88
35577;BME280;21680;52.400;16.920;2023-03-19T02:24:25;100665.46;;;5.98;58.83
35577;BME280;21680;52.400;16.920;2023-03-19T02:26:52;100665.63;;;5.98;58.88
35577;BME280;21680;52.400;16.920;2023-03-19T02:29:18;100667.03;;;5.99;58.86
35577;BME280;21680;52.400;16.920;2023-03-19T02:31:43;100667.35;;;6.00;58.94
35577;BME280;21680;52.400;16.920;2023-03-19T02:36:43;100661.27;;;6.02;59.07
35577;BME280;21680;52.400;16.920;2023-03-19T02:39:23;100661.61;;;6.03;59.09
35577;BME280;21680;52.400;16.920;2023-03-19T02:41:51;100667.11;;;6.03;59.30
35577;BME280;21680;52.400;16.920;2023-03-19T02:44:18;100668.15;;;6.03;59.18
35577;BME280;21680;52.400;16.920;2023-03-19T02:46:45;100668.20;;;6.02;59.29
35577;BME280;21680;52.400;16.920;2023-03-19T02:49:10;100670.73;;;6.00;59.32
35577;BME280;21680;52.400;16.920;2023-03-19T02:51:36;100676.64;;;5.98;59.34
35577;BME280;21680;52.400;16.920;2023-03-19T02:54:02;100677.74;;;5.95;59.42
35577;BME280;21680;52.400;16.920;2023-03-19T02:56:28;100677.96;;;5.94;59.36
35577;BME280;21680;52.400;16.920;2023-03-19T02:58:53;100677.99;;;5.93;59.33
35577;BME280;21680;52.400;16.920;2023-03-19T03:01:19;100685.16;;;5.89;59.35
35577;BME280;21680;52.400;16.920;2023-03-19T03:03:45;100691.24;;;5.86;59.46
35577;BME280;21680;52.400;16.920;2023-03-19T03:06:12;100696.65;;;5.82;59.50
35577;BME280;21680;52.400;16.920;2023-03-19T03:08:38;100697.80;;;5.78;59.69
35577;BME280;21680;52.400;16.920;2023-03-19T03:11:03;100702.48;;;5.75;59.68
35577;BME280;21680;52.400;16.920;2023-03-19T03:13:29;100702.88;;;5.73;59.63
35577;BME280;21680;52.400;16.920;2023-03-19T03:15:54;100702.39;;;5.72;59.69
35577;BME280;21680;52.400;16.920;2023-03-19T03:18:19;100700.30;;;5.70;59.76
35577;BME280;21680;52.400;16.920;2023-03-19T03:20:44;100701.55;;;5.70;59.95
35577;BME280;21680;52.400;16.920;2023-03-19T03:23:10;100697.48;;;5.69;59.92
35577;BME280;21680;52.400;16.920;2023-03-19T03:25:36;100697.34;;;5.67;59.81
35577;BME280;21680;52.400;16.920;2023-03-19T03:28:01;100702.16;;;5.66;59.95
35577;BME280;21680;52.400;16.920;2023-03-19T03:30:27;100706.45;;;5.64;59.99
35577;BME280;21680;52.400;16.920;2023-03-19T03:32:53;100713.07;;;5.62;60.00
35577;BME280;21680;52.400;16.920;2023-03-19T03:35:18;100717.15;;;5.62;60.18
35577;BME280;21680;52.400;16.920;2023-03-19T03:37:48;100716.84;;;5.60;60.19
35577;BME280;21680;52.400;16.920;2023-03-19T03:40:13;100715.95;;;5.60;60.39
35577;BME280;21680;52.400;16.920;2023-03-19T03:42:40;100717.54;;;5.60;60.25
35577;BME280;21680;52.400;16.920;2023-03-19T03:45:06;100714.55;;;5.59;60.38
35577;BME280;21680;52.400;16.920;2023-03-19T03:47:32;100714.36;;;5.60;60.43
35577;BME280;21680;52.400;16.920;2023-03-19T03:49:57;100714.86;;;5.61;60.41
35577;BME280;21680;52.400;16.920;2023-03-19T03:52:23;100716.17;;;5.57;60.48
35577;BME280;21680;52.400;16.920;2023-03-19T03:54:48;100710.69;;;5.49;60.42
35577;BME280;21680;52.400;16.920;2023-03-19T03:57:13;100710.64;;;5.43;60.50
35577;BME280;21680;52.400;16.920;2023-03-19T03:59:39;100711.08;;;5.39;60.73
35577;BME280;21680;52.400;16.920;2023-03-19T04:02:05;100711.65;;;5.37;60.73
35577;BME280;21680;52.400;16.920;2023-03-19T04:04:31;100706.79;;;5.32;60.79
35577;BME280;21680;52.400;16.920;2023-03-19T04:06:58;100706.16;;;5.29;60.85
35577;BME280;21680;52.400;16.920;2023-03-19T04:09:23;100706.78;;;5.24;60.74
35577;BME280;21680;52.400;16.920;2023-03-19T04:11:48;100700.84;;;5.21;61.04
35577;BME280;21680;52.400;16.920;2023-03-19T04:14:14;100702.14;;;5.19;61.12
35577;BME280;21680;52.400;16.920;2023-03-19T04:16:39;100705.89;;;5.17;60.96
35577;BME280;21680;52.400;16.920;2023-03-19T04:19:04;100707.87;;;5.16;61.08
35577;BME280;21680;52.400;16.920;2023-03-19T04:21:32;100704.39;;;5.13;61.14
35577;BME280;21680;52.400;16.920;2023-03-19T04:23:57;100707.27;;;5.11;61.34
35577;BME280;21680;52.400;16.920;2023-03-19T04:26:23;100708.88;;;5.10;61.34
35577;BME280;21680;52.400;16.920;2023-03-19T04:28:48;100711.20;;;5.09;61.32
35577;BME280;21680;52.400;16.920;2023-03-19T04:31:13;100713.87;;;5.08;61.35
35577;BME280;21680;52.400;16.920;2023-03-19T04:33:39;100714.62;;;5.06;61.31
35577;BME280;21680;52.400;16.920;2023-03-19T04:36:05;100713.92;;;5.05;61.31
35577;BME280;21680;52.400;16.920;2023-03-19T04:38:31;100712.38;;;5.03;61.50
35577;BME280;21680;52.400;16.920;2023-03-19T04:40:57;100712.56;;;5.02;61.55
35577;BME280;21680;52.400;16.920;2023-03-19T04:43:23;100709.23;;;5.01;61.68
35577;BME280;21680;52.400;16.920;2023-03-19T04:45:49;100712.42;;;5.01;61.69
35577;BME280;21680;52.400;16.920;2023-03-19T04:48:15;100711.19;;;5.00;61.79
35577;BME280;21680;52.400;16.920;2023-03-19T04:50:41;100713.69;;;5.00;61.75
35577;BME280;21680;52.400;16.920;2023-03-19T04:53:07;100713.86;;;5.00;61.85
35577;BME280;21680;52.400;16.920;2023-03-19T04:55:33;100712.48;;;4.97;61.91
35577;BME280;21680;52.400;16.920;2023-03-19T04:58:00;100708.95;;;4.97;61.84
35577;BME280;21680;52.400;16.920;2023-03-19T05:00:25;100710.35;;;4.98;62.03
35577;BME280;21680;52.400;16.920;2023-03-19T05:02:51;100712.64;;;4.99;62.00
35577;BME280;21680;52.400;16.920;2023-03-19T05:05:16;100708.21;;;4.99;62.08
35577;BME280;21680;52.400;16.920;2023-03-19T05:07:42;100704.17;;;4.97;62.02
35577;BME280;21680;52.400;16.920;2023-03-19T05:10:08;100701.35;;;4.97;62.19
35577;BME280;21680;52.400;16.920;2023-03-19T05:12:34;100702.94;;;4.97;62.25
35577;BME280;21680;52.400;16.920;2023-03-19T05:15:00;100708.25;;;4.96;62.26
35577;BME280;21680;52.400;16.920;2023-03-19T05:17:26;100707.41;;;4.95;62.26
35577;BME280;21680;52.400;16.920;2023-03-19T05:19:52;100706.54;;;4.94;62.29
35577;BME280;21680;52.400;16.920;2023-03-19T05:22:18;100703.33;;;4.95;62.44
35577;BME280;21680;52.400;16.920;2023-03-19T05:24:44;100701.88;;;4.97;62.45
35577;BME280;21680;52.400;16.920;2023-03-19T05:27:09;100699.38;;;4.98;62.46
35577;BME280;21680;52.400;16.920;2023-03-19T05:29:35;100699.02;;;4.98;62.52
35577;BME280;21680;52.400;16.920;2023-03-19T05:32:00;100699.19;;;4.99;62.49
35577;BME280;21680;52.400;16.920;2023-03-19T05:34:28;100699.34;;;5.00;62.62
35577;BME280;21680;52.400;16.920;2023-03-19T05:36:53;100703.73;;;5.02;62.76
35577;BME280;21680;52.400;16.920;2023-03-19T05:39:19;100704.64;;;5.01;62.65
35577;BME280;21680;52.400;16.920;2023-03-19T05:41:44;100712.63;;;4.99;62.68
35577;BME280;21680;52.400;16.920;2023-03-19T05:44:10;100712.48;;;4.98;62.74
35577;BME280;21680;52.400;16.920;2023-03-19T05:46:35;100711.08;;;4.98;62.78
35577;BME280;21680;52.400;16.920;2023-03-19T05:49:00;100718.45;;;5.00;62.91
35577;BME280;21680;52.400;16.920;2023-03-19T05:51:26;100724.77;;;5.04;62.93
35577;BME280;21680;52.400;16.920;2023-03-19T05:53:51;100732.13;;;5.07;62.96
35577;BME280;21680;52.400;16.920;2023-03-19T05:56:16;100734.05;;;5.09;62.91
35577;BME280;21680;52.400;16.920;2023-03-19T05:58:42;100737.70;;;5.12;63.03
35577;BME280;21680;52.400;16.920;2023-03-19T06:01:07;100739.27;;;5.14;62.92
35577;BME280;21680;52.400;16.920;2023-03-19T06:03:32;100734.11;;;5.15;63.15
35577;BME280;21680;52.400;16.920;2023-03-19T06:05:58;100736.37;;;5.17;63.25
35577;BME280;21680;52.400;16.920;2023-03-19T06:08:23;100740.21;;;5.19;63.09
35577;BME280;21680;52.400;16.920;2023-03-19T06:10:48;100743.16;;;5.21;62.99
35577;BME280;21680;52.400;16.920;2023-03-19T06:13:13;100749.50;;;5.23;63.15
35577;BME280;21680;52.400;16.920;2023-03-19T06:15:39;100757.20;;;5.27;63.19
35577;BME280;21680;52.400;16.920;2023-03-19T06:18:04;100765.82;;;5.31;63.32
35577;BME280;21680;52.400;16.920;2023-03-19T06:20:30;100770.48;;;5.37;63.29
35577;BME280;21680;52.400;16.920;2023-03-19T06:22:56;100767.21;;;5.41;63.16
35577;BME280;21680;52.400;16.920;2023-03-19T06:25:22;100764.38;;;5.41;63.18
35577;BME280;21680;52.400;16.920;2023-03-19T06:27:47;100760.81;;;5.42;63.20
35577;BME280;21680;52.400;16.920;2023-03-19T06:30:13;100760.55;;;5.46;63.45
35577;BME280;21680;52.400;16.920;2023-03-19T06:32:38;100761.18;;;5.50;63.29
35577;BME280;21680;52.400;16.920;2023-03-19T06:35:04;100764.09;;;5.54;63.29
35577;BME280;21680;52.400;16.920;2023-03-19T06:37:31;100763.98;;;5.60;63.50
35577;BME280;21680;52.400;16.920;2023-03-19T06:39:56;100763.30;;;5.67;63.57
35577;BME280;21680;52.400;16.920;2023-03-19T06:42:22;100758.22;;;5.72;63.56
35577;BME280;21680;52.400;16.920;2023-03-19T06:44:48;100759.36;;;5.77;63.50
35577;BME280;21680;52.400;16.920;2023-03-19T06:47:13;100761.19;;;5.82;63.49
35577;BME280;21680;52.400;16.920;2023-03-19T06:49:39;100760.89;;;5.88;63.56
35577;BME280;21680;52.400;16.920;2023-03-19T06:52:04;100766.25;;;5.96;63.58
35577;BME280;21680;52.400;16.920;2023-03-19T06:54:30;100768.80;;;6.00;63.57
35577;BME280;21680;52.400;16.920;2023-03-19T06:56:55;100769.23;;;6.05;63.51
35577;BME280;21680;52.400;16.920;2023-03-19T06:59:21;100771.37;;;6.12;63.52
35577;BME280;21680;52.400;16.920;2023-03-19T07:01:46;100774.30;;;6.16;63.57
35577;BME280;21680;52.400;16.920;2023-03-19T07:04:11;100772.42;;;6.20;63.59
35577;BME280;21680;52.400;16.920;2023-03-19T07:06:37;100779.23;;;6.25;63.59
35577;BME280;21680;52.400;16.920;2023-03-19T07:09:04;100773.25;;;6.30;63.56
35577;BME280;21680;52.400;16.920;2023-03-19T07:11:30;100777.49;;;6.38;63.64
35577;BME280;21680;52.400;16.920;2023-03-19T07:13:55;100771.26;;;6.46;63.52
35577;BME280;21680;52.400;16.920;2023-03-19T07:16:20;100772.34;;;6.53;63.49
35577;BME280;21680;52.400;16.920;2023-03-19T07:18:46;100778.39;;;6.59;63.46
35577;BME280;21680;52.400;16.920;2023-03-19T07:21:11;100780.33;;;6.67;63.38
35577;BME280;21680;52.400;16.920;2023-03-19T07:23:37;100782.95;;;6.76;63.48
35577;BME280;21680;52.400;16.920;2023-03-19T07:26:02;100782.05;;;6.83;63.37
35577;BME280;21680;52.400;16.920;2023-03-19T07:28:28;100780.41;;;6.92;63.44
35577;BME280;21680;52.400;16.920;2023-03-19T07:30:54;100775.54;;;7.01;63.49
35577;BME280;21680;52.400;16.920;2023-03-19T07:33:20;100773.89;;;7.09;63.47
35577;BME280;21680;52.400;16.920;2023-03-19T07:35:46;100775.75;;;7.19;63.48
35577;BME280;21680;52.400;16.920;2023-03-19T07:38:11;100776.73;;;7.29;63.41
35577;BME280;21680;52.400;16.920;2023-03-19T07:40:37;100774.66;;;7.40;63.45
35577;BME280;21680;52.400;16.920;2023-03-19T07:43:03;100776.67;;;7.50;63.41
35577;BME280;21680;52.400;16.920;2023-03-19T07:45:28;100777.09;;;7.60;63.44
35577;BME280;21680;52.400;16.920;2023-03-19T07:47:54;100771.56;;;7.67;63.36
35577;BME280;21680;52.400;16.920;2023-03-19T07:50:19;100773.69;;;7.73;63.42
35577;BME280;21680;52.400;16.920;2023-03-19T07:52:45;100772.62;;;7.79;63.36
35577;BME280;21680;52.400;16.920;2023-03-19T07:55:12;100774.22;;;7.84;63.32
35577;BME280;21680;52.400;16.920;2023-03-19T07:57:37;100770.34;;;7.88;63.26
35577;BME280;21680;52.400;16.920;2023-03-19T08:00:04;100766.14;;;7.92;63.26
35577;BME280;21680;52.400;16.920;2023-03-19T08:02:29;100765.98;;;7.97;63.29
35577;BME280;21680;52.400;16.920;2023-03-19T08:04:55;100759.35;;;8.04;63.25
35577;BME280;21680;52.400;16.920;2023-03-19T08:07:21;100758.06;;;8.11;63.23
35577;BME280;21680;52.400;16.920;2023-03-19T08:09:46;100752.24;;;8.21;63.22
35577;BME280;21680;52.400;16.920;2023-03-19T08:12:13;100753.85;;;8.32;63.19
35577;BME280;21680;52.400;16.920;2023-03-19T08:14:39;100751.88;;;8.44;63.17
35577;BME280;21680;52.400;16.920;2023-03-19T08:17:04;100756.82;;;8.56;63.18
35577;BME280;21680;52.400;16.920;2023-03-19T08:19:30;100748.61;;;8.67;63.11
35577;BME280;21680;52.400;16.920;2023-03-19T08:21:56;100748.65;;;8.82;63.08
35577;BME280;21680;52.400;16.920;2023-03-19T08:24:21;100751.96;;;8.94;63.09
35577;BME280;21680;52.400;16.920;2023-03-19T08:26:47;100755.05;;;9.07;62.90
35577;BME280;21680;52.400;16.920;2023-03-19T08:29:12;100755.41;;;9.18;62.85
35577;BME280;21680;52.400;16.920;2023-03-19T08:31:38;100756.39;;;9.30;62.85
35577;BME280;21680;52.400;16.920;2023-03-19T08:34:03;100748.40;;;9.38;62.75
35577;BME280;21680;52.400;16.920;2023-03-19T08:36:29;100750.67;;;9.44;62.70
35577;BME280;21680;52.400;16.920;2023-03-19T08:38:55;100748.49;;;9.50;62.57
35577;BME280;21680;52.400;16.920;2023-03-19T08:41:21;100749.66;;;9.58;62.51
35577;BME280;21680;52.400;16.920;2023-03-19T08:43:46;100756.10;;;9.66;62.37
35577;BME280;21680;52.400;16.920;2023-03-19T08:46:11;100760.23;;;9.79;62.46
35577;BME280;21680;52.400;16.920;2023-03-19T08:48:37;100762.50;;;9.94;62.44
35577;BME280;21680;52.400;16.920;2023-03-19T08:51:03;100763.98;;;10.07;62.29
35577;BME280;21680;52.400;16.920;2023-03-19T08:53:29;100762.04;;;10.20;62.18
35577;BME280;21680;52.400;16.920;2023-03-19T08:55:58;100764.58;;;10.29;62.09
35577;BME280;21680;52.400;16.920;2023-03-19T08:58:25;100765.18;;;10.36;61.90
35577;BME280;21680;52.400;16.920;2023-03-19T09:00:51;100760.38;;;10.48;61.95
35577;BME280;21680;52.400;16.920;2023-03-19T09:03:18;100764.48;;;10.60;61.78
35577;BME280;21680;52.400;16.920;2023-03-19T09:05:45;100765.08;;;10.72;61.66
35577;BME280;21680;52.400;16.920;2023-03-19T09:08:11;100761.61;;;10.86;61.73
35577;BME280;21680;52.400;16.920;2023-03-19T09:10:37;100761.34;;;10.96;61.57
35577;BME280;21680;52.400;16.920;2023-03-19T09:13:02;100762.15;;;11.07;61.44
35577;BME280;21680;52.400;16.920;2023-03-19T09:15:28;100762.43;;;11.17;61.21
35577;BME280;21680;52.400;16.920;2023-03-19T09:17:53;100760.88;;;11.28;61.23
35577;BME280;21680;52.400;16.920;2023-03-19T09:20:19;100756.83;;;11.38;61.05
35577;BME280;21680;52.400;16.920;2023-03-19T09:22:44;100758.54;;;11.48;60.78
35577;BME280;21680;52.400;16.920;2023-03-19T09:25:10;100754.10;;;11.59;60.77
35577;BME280;21680;52.400;16.920;2023-03-19T09:27:35;100754.03;;;11.68;60.27
35577;BME280;21680;52.400;16.920;2023-03-19T09:30:01;100753.67;;;11.76;60.48
35577;BME280;21680;52.400;16.920;2023-03-19T09:32:27;100754.06;;;11.87;60.29
35577;BME280;21680;52.400;16.920;2023-03-19T09:34:52;100757.39;;;12.00;60.04
35577;BME280;21680;52.400;16.920;2023-03-19T09:37:18;100759.95;;;12.10;60.01
35577;BME280;21680;52.400;16.920;2023-03-19T09:39:43;100757.66;;;12.17;59.60
35577;BME280;21680;52.400;16.920;2023-03-19T09:42:18;100756.32;;;12.26;59.34
35577;BME280;21680;52.400;16.920;2023-03-19T09:44:51;100756.42;;;12.39;59.13
35577;BME280;21680;52.400;16.920;2023-03-19T09:47:25;100757.97;;;12.54;58.84
35577;BME280;21680;52.400;16.920;2023-03-19T09:49:52;100752.34;;;12.70;58.67
35577;BME280;21680;52.400;16.920;2023-03-19T09:52:41;100752.73;;;12.84;58.08
35577;BME280;21680;52.400;16.920;2023-03-19T09:55:33;100745.25;;;12.96;58.20
35577;BME280;21680;52.400;16.920;2023-03-19T09:58:00;100744.95;;;13.08;57.87
35577;BME280;21680;52.400;16.920;2023-03-19T10:00:33;100745.27;;;13.20;57.75
35577;BME280;21680;52.400;16.920;2023-03-19T10:03:27;100746.36;;;13.33;57.60
35577;BME280;21680;52.400;16.920;2023-03-19T10:08:52;100743.23;;;13.48;56.97
35577;BME280;21680;52.400;16.920;2023-03-19T10:11:47;100742.64;;;13.52;56.91
35577;BME280;21680;52.400;16.920;2023-03-19T10:14:35;100742.17;;;13.61;56.63
35577;BME280;21680;52.400;16.920;2023-03-19T10:17:11;100741.11;;;13.71;56.46
35577;BME280;21680;52.400;16.920;2023-03-19T10:22:18;100739.90;;;13.73;55.99
35577;BME280;21680;52.400;16.920;2023-03-19T10:24:47;100734.95;;;13.78;55.82
35577;BME280;21680;52.400;16.920;2023-03-19T10:27:19;100741.52;;;13.86;55.64
35577;BME280;21680;52.400;16.920;2023-03-19T10:29:46;100746.03;;;13.88;55.49
35577;BME280;21680;52.400;16.920;2023-03-19T10:34:47;100750.06;;;13.93;55.02
35577;BME280;21680;52.400;16.920;2023-03-19T10:37:18;100753.51;;;14.00;54.70
35577;BME280;21680;52.400;16.920;2023-03-19T10:39:46;100753.98;;;14.10;54.62
35577;BME280;21680;52.400;16.920;2023-03-19T10:45:27;100750.79;;;14.28;54.31
35577;BME280;21680;52.400;16.920;2023-03-19T10:47:54;100748.11;;;14.31;54.14
35577;BME280;21680;52.400;16.920;2023-03-19T10:50:36;100749.33;;;14.29;53.94
35577;BME280;21680;52.400;16.920;2023-03-19T10:55:55;100743.08;;;14.16;53.25
35577;BME280;21680;52.400;16.920;2023-03-19T10:58:25;100740.44;;;14.05;53.24
35577;BME280;21680;52.400;16.920;2023-03-19T11:01:09;100737.20;;;14.09;53.22
35577;BME280;21680;52.400;16.920;2023-03-19T11:03:48;100734.66;;;14.09;53.01
35577;BME280;21680;52.400;16.920;2023-03-19T11:06:32;100733.67;;;14.10;52.70
35577;BME280;21680;52.400;16.920;2023-03-19T11:08:59;100733.52;;;14.22;52.69
35577;BME280;21680;52.400;16.920;2023-03-19T11:11:47;100728.40;;;14.30;52.65
35577;BME280;21680;52.400;16.920;2023-03-19T11:14:18;100726.74;;;14.37;52.45
35577;BME280;21680;52.400;16.920;2023-03-19T11:16:57;100721.83;;;14.42;52.36
35577;BME280;21680;52.400;16.920;2023-03-19T11:19:29;100721.67;;;14.45;52.15
35577;BME280;21680;52.400;16.920;2023-03-19T11:22:08;100721.69;;;14.47;52.31
35577;BME280;21680;52.400;16.920;2023-03-19T11:24:47;100716.98;;;14.48;52.13
35577;BME280;21680;52.400;16.920;2023-03-19T11:27:12;100716.33;;;14.47;52.02
35577;BME280;21680;52.400;16.920;2023-03-19T11:29:41;100713.65;;;14.46;51.90
35577;BME280;21680;52.400;16.920;2023-03-19T11:32:12;100711.19;;;14.43;51.73
35577;BME280;21680;52.400;16.920;2023-03-19T11:34:52;100712.06;;;14.49;51.84
35577;BME280;21680;52.400;16.920;2023-03-19T11:40:19;100705.45;;;14.60;51.69
35577;BME280;21680;52.400;16.920;2023-03-19T11:45:29;100701.45;;;14.70;51.73
35577;BME280;21680;52.400;16.920;2023-03-19T11:51:14;100700.63;;;14.78;51.49
35577;BME280;21680;52.400;16.920;2023-03-19T11:53:56;100695.76;;;14.87;51.56
35577;BME280;21680;52.400;16.920;2023-03-19T11:56:39;100692.46;;;14.94;51.52
35577;BME280;21680;52.400;16.920;2023-03-19T11:59:31;100693.54;;;14.94;51.39
35577;BME280;21680;52.400;16.920;2023-03-19T12:02:16;100699.32;;;14.93;51.23
35577;BME280;21680;52.400;16.920;2023-03-19T12:05:07;100701.02;;;14.86;51.13
35577;BME280;21680;52.400;16.920;2023-03-19T12:08:11;100700.72;;;14.85;51.01
35577;BME280;21680;52.400;16.920;2023-03-19T12:10:44;100703.06;;;14.88;50.88
35577;BME280;21680;52.400;16.920;2023-03-19T12:16:40;100704.10;;;14.95;50.78
35577;BME280;21680;52.400;16.920;2023-03-19T12:22:13;100702.95;;;14.99;50.33
35577;BME280;21680;52.400;16.920;2023-03-19T12:27:40;100701.98;;;15.06;50.16
35577;BME280;21680;52.400;16.920;2023-03-19T12:33:08;100697.64;;;15.15;50.06
35577;BME280;21680;52.400;16.920;2023-03-19T12:35:39;100692.88;;;15.22;50.13
35577;BME280;21680;52.400;16.920;2023-03-19T12:40:55;100696.03;;;15.33;49.65
35577;BME280;21680;52.400;16.920;2023-03-19T12:43:51;100697.18;;;15.34;49.91
35577;BME280;21680;52.400;16.920;2023-03-19T12:46:29;100695.11;;;15.30;49.67
35577;BME280;21680;52.400;16.920;2023-03-19T12:49:24;100692.28;;;15.35;49.64
35577;BME280;21680;52.400;16.920;2023-03-19T12:54:38;100688.62;;;15.47;49.47
35577;BME280;21680;52.400;16.920;2023-03-19T12:57:28;100690.11;;;15.52;49.66
35577;BME280;21680;52.400;16.920;2023-03-19T13:00:14;100688.98;;;15.55;49.48
35577;BME280;21680;52.400;16.920;2023-03-19T13:05:38;100684.67;;;15.44;49.33
35577;BME280;21680;52.400;16.920;2023-03-19T13:10:53;100677.55;;;15.57;49.31
35577;BME280;21680;52.400;16.920;2023-03-19T13:15:57;100675.58;;;15.71;49.40
35577;BME280;21680;52.400;16.920;2023-03-19T13:18:43;100676.13;;;15.68;49.13
35577;BME280;21680;52.400;16.920;2023-03-19T13:24:18;100672.29;;;15.58;49.06
35577;BME280;21680;52.400;16.920;2023-03-19T13:26:46;100661.66;;;15.69;49.16
35577;BME280;21680;52.400;16.920;2023-03-19T13:29:19;100658.59;;;15.80;49.20
35577;BME280;21680;52.400;16.920;2023-03-19T13:31:49;100658.02;;;15.88;49.23
35577;BME280;21680;52.400;16.920;2023-03-19T13:36:42;100652.48;;;16.05;49.13
35577;BME280;21680;52.400;16.920;2023-03-19T13:39:16;100649.86;;;16.09;49.00
35577;BME280;21680;52.400;16.920;2023-03-19T13:46:42;100645.44;;;16.21;49.01
35577;BME280;21680;52.400;16.920;2023-03-19T13:49:21;100647.52;;;16.17;48.78
35577;BME280;21680;52.400;16.920;2023-03-19T13:51:49;100651.99;;;16.06;48.73
35577;BME280;21680;52.400;16.920;2023-03-19T13:54:19;100651.88;;;15.92;48.64
35577;BME280;21680;52.400;16.920;2023-03-19T13:59:27;100648.38;;;15.76;48.56